sensor_id;sensor_type;location;lat;lon;timestamp;pressure;altitude;pressure_sealevel;temperature;humidity
66945;BME280;53853;51.982;5.928;2023-06-14T00:00:52;101419.81;;;19.98;36.04
66945;BME280;53853;51.982;5.928;2023-06-14T00:03:23;101429.34;;;19.94;35.92
66945;BME280;53853;51.982;5.928;2023-06-14T00:05:53;101428.09;;;19.89;35.96
66945;BME280;53853;51.982;5.928;2023-06-14T00:08:23;101428.50;;;19.86;36.12
66945;BME280;53853;51.982;5.928;2023-06-14T00:10:55;101423.28;;;19.85;35.96
66945;BME280;53853;51.982;5.928;2023-06-14T00:13:25;101429.06;;;19.82;36.46
66945;BME280;53853;51.982;5.928;2023-06-14T00:15:55;101425.75;;;19.80;36.20
66945;BME280;53853;51.982;5.928;2023-06-14T00:18:25;101430.50;;;19.78;36.38
66945;BME280;53853;51.982;5.928;2023-06-14T00:20:56;101427.97;;;19.76;36.63
66945;BME280;53853;51.982;5.928;2023-06-14T00:23:25;101430.03;;;19.74;36.36
66945;BME280;53853;51.982;5.928;2023-06-14T00:25:58;101437.31;;;19.73;36.48
66945;BME280;53853;51.982;5.928;2023-06-14T00:28:28;101434.81;;;19.72;36.52
66945;BME280;53853;51.982;5.928;2023-06-14T00:30:58;101433.13;;;19.71;36.97
66945;BME280;53853;51.982;5.928;2023-06-14T00:33:29;101434.56;;;19.67;36.65
66945;BME280;53853;51.982;5.928;2023-06-14T00:35:58;101441.00;;;19.66;36.70
66945;BME280;53853;51.982;5.928;2023-06-14T00:38:28;101441.00;;;19.66;37.21
66945;BME280;53853;51.982;5.928;2023-06-14T00:41:01;101437.84;;;19.62;36.92
66945;BME280;53853;51.982;5.928;2023-06-14T00:43:30;101439.06;;;19.60;37.19
66945;BME280;53853;51.982;5.928;2023-06-14T00:46:01;101440.94;;;19.59;37.05
66945;BME280;53853;51.982;5.928;2023-06-14T00:48:31;101440.50;;;19.55;37.08
66945;BME280;53853;51.982;5.928;2023-06-14T00:51:03;101438.19;;;19.52;37.51
66945;BME280;53853;51.982;5.928;2023-06-14T00:53:33;101434.81;;;19.50;37.24
66945;BME280;53853;51.982;5.928;2023-06-14T00:56:06;101443.13;;;19.49;37.31
66945;BME280;53853;51.982;5.928;2023-06-14T00:58:36;101439.78;;;19.47;38.40
66945;BME280;53853;51.982;5.928;2023-06-14T01:01:05;101437.66;;;19.42;38.05
66945;BME280;53853;51.982;5.928;2023-06-14T01:03:36;101436.16;;;19.40;37.82
66945;BME280;53853;51.982;5.928;2023-06-14T01:06:15;101439.72;;;19.40;37.51
66945;BME280;53853;51.982;5.928;2023-06-14T01:09:01;101440.56;;;19.41;37.81
66945;BME280;53853;51.982;5.928;2023-06-14T01:11:41;101443.44;;;19.39;38.34
66945;BME280;53853;51.982;5.928;2023-06-14T01:14:13;101448.22;;;19.37;38.29
66945;BME280;53853;51.982;5.928;2023-06-14T01:16:47;101448.59;;;19.34;38.45
66945;BME280;53853;51.982;5.928;2023-06-14T01:19:22;101444.22;;;19.33;38.41
66945;BME280;53853;51.982;5.928;2023-06-14T01:21:53;101440.88;;;19.31;38.10
66945;BME280;53853;51.982;5.928;2023-06-14T01:24:25;101442.09;;;19.28;38.37
66945;BME280;53853;51.982;5.928;2023-06-14T01:26:59;101440.81;;;19.24;38.60
66945;BME280;53853;51.982;5.928;2023-06-14T01:29:30;101440.16;;;19.22;38.22
66945;BME280;53853;51.982;5.928;2023-06-14T01:32:04;101439.34;;;19.22;38.73
66945;BME280;53853;51.982;5.928;2023-06-14T01:34:34;101443.06;;;19.21;38.51
66945;BME280;53853;51.982;5.928;2023-06-14T01:37:05;101435.75;;;19.14;39.09
66945;BME280;53853;51.982;5.928;2023-06-14T01:39:38;101450.28;;;19.13;38.72
66945;BME280;53853;51.982;5.928;2023-06-14T01:42:08;101439.66;;;19.12;38.71
66945;BME280;53853;51.982;5.928;2023-06-14T01:44:39;101452.34;;;19.11;38.55
66945;BME280;53853;51.982;5.928;2023-06-14T01:47:09;101449.81;;;19.10;38.38
66945;BME280;53853;51.982;5.928;2023-06-14T01:49:40;101448.78;;;19.11;38.69
66945;BME280;53853;51.982;5.928;2023-06-14T01:52:10;101447.31;;;19.08;38.76
66945;BME280;53853;51.982;5.928;2023-06-14T01:54:42;101444.63;;;19.08;38.79
66945;BME280;53853;51.982;5.928;2023-06-14T01:57:14;101442.28;;;19.05;39.37
66945;BME280;53853;51.982;5.928;2023-06-14T01:59:44;101438.91;;;19.03;39.03
66945;BME280;53853;51.982;5.928;2023-06-14T02:02:15;101437.28;;;19.02;38.83
66945;BME280;53853;51.982;5.928;2023-06-14T02:04:45;101439.97;;;19.02;39.08
66945;BME280;53853;51.982;5.928;2023-06-14T02:07:16;101439.31;;;19.00;39.05
66945;BME280;53853;51.982;5.928;2023-06-14T02:09:49;101445.75;;;18.99;38.89
66945;BME280;53853;51.982;5.928;2023-06-14T02:12:19;101436.81;;;18.98;38.81
66945;BME280;53853;51.982;5.928;2023-06-14T02:14:48;101435.97;;;18.98;39.13
66945;BME280;53853;51.982;5.928;2023-06-14T02:17:18;101439.91;;;18.95;39.27
66945;BME280;53853;51.982;5.928;2023-06-14T02:19:48;101437.41;;;18.94;39.38
66945;BME280;53853;51.982;5.928;2023-06-14T02:22:18;101436.72;;;18.92;39.34
66945;BME280;53853;51.982;5.928;2023-06-14T02:24:51;101430.69;;;18.90;39.19
66945;BME280;53853;51.982;5.928;2023-06-14T02:27:21;101438.16;;;18.88;39.49
66945;BME280;53853;51.982;5.928;2023-06-14T02:29:50;101432.06;;;18.86;39.40
66945;BME280;53853;51.982;5.928;2023-06-14T02:32:20;101438.69;;;18.83;39.57
66945;BME280;53853;51.982;5.928;2023-06-14T02:34:50;101444.09;;;18.83;39.67
66945;BME280;53853;51.982;5.928;2023-06-14T02:37:20;101447.81;;;18.82;39.85
66945;BME280;53853;51.982;5.928;2023-06-14T02:39:52;101446.53;;;18.78;39.78
66945;BME280;53853;51.982;5.928;2023-06-14T02:42:22;101439.44;;;18.77;40.12
66945;BME280;53853;51.982;5.928;2023-06-14T02:44:52;101442.34;;;18.75;39.96
66945;BME280;53853;51.982;5.928;2023-06-14T02:47:22;101441.50;;;18.75;40.14
66945;BME280;53853;51.982;5.928;2023-06-14T02:49:52;101444.59;;;18.72;39.92
66945;BME280;53853;51.982;5.928;2023-06-14T02:52:22;101443.09;;;18.69;40.11
66945;BME280;53853;51.982;5.928;2023-06-14T02:54:54;101452.19;;;18.68;40.11
66945;BME280;53853;51.982;5.928;2023-06-14T02:57:24;101448.84;;;18.66;39.95
66945;BME280;53853;51.982;5.928;2023-06-14T02:59:54;101454.63;;;18.63;40.21
66945;BME280;53853;51.982;5.928;2023-06-14T03:02:24;101454.00;;;18.61;40.32
66945;BME280;53853;51.982;5.928;2023-06-14T03:04:54;101457.06;;;18.58;40.65
66945;BME280;53853;51.982;5.928;2023-06-14T03:07:30;101456.44;;;18.56;40.87
66945;BME280;53853;51.982;5.928;2023-06-14T03:10:06;101463.03;;;18.53;40.82
66945;BME280;53853;51.982;5.928;2023-06-14T03:12:36;101463.22;;;18.52;40.69
66945;BME280;53853;51.982;5.928;2023-06-14T03:15:07;101462.56;;;18.50;40.93
66945;BME280;53853;51.982;5.928;2023-06-14T03:17:41;101462.25;;;18.44;40.96
66945;BME280;53853;51.982;5.928;2023-06-14T03:20:12;101459.78;;;18.43;41.24
66945;BME280;53853;51.982;5.928;2023-06-14T03:22:42;101468.06;;;18.41;41.24
66945;BME280;53853;51.982;5.928;2023-06-14T03:25:16;101477.19;;;18.40;41.39
66945;BME280;53853;51.982;5.928;2023-06-14T03:27:48;101481.06;;;18.38;41.01
66945;BME280;53853;51.982;5.928;2023-06-14T03:30:20;101478.56;;;18.36;41.29
66945;BME280;53853;51.982;5.928;2023-06-14T03:32:52;101482.47;;;18.34;41.56
66945;BME280;53853;51.982;5.928;2023-06-14T03:35:23;101480.97;;;18.31;41.77
66945;BME280;53853;51.982;5.928;2023-06-14T03:37:53;101489.25;;;18.29;41.86
66945;BME280;53853;51.982;5.928;2023-06-14T03:40:27;101488.44;;;18.29;41.70
66945;BME280;53853;51.982;5.928;2023-06-14T03:43:02;101486.09;;;18.26;41.90
66945;BME280;53853;51.982;5.928;2023-06-14T03:45:32;101484.41;;;18.25;42.16
66945;BME280;53853;51.982;5.928;2023-06-14T03:48:03;101485.47;;;18.24;42.09
66945;BME280;53853;51.982;5.928;2023-06-14T03:50:33;101491.88;;;18.23;42.14
66945;BME280;53853;51.982;5.928;2023-06-14T03:53:04;101497.25;;;18.23;41.96
66945;BME280;53853;51.982;5.928;2023-06-14T03:55:39;101497.44;;;18.21;42.07
66945;BME280;53853;51.982;5.928;2023-06-14T03:58:08;101500.16;;;18.21;42.08
66945;BME280;53853;51.982;5.928;2023-06-14T04:00:40;101508.41;;;18.20;42.36
66945;BME280;53853;51.982;5.928;2023-06-14T04:03:10;101505.72;;;18.20;42.35
66945;BME280;53853;51.982;5.928;2023-06-14T04:05:43;101506.72;;;18.19;42.58
66945;BME280;53853;51.982;5.928;2023-06-14T04:08:16;101509.63;;;18.17;42.59
66945;BME280;53853;51.982;5.928;2023-06-14T04:10:48;101508.59;;;18.18;42.66
66945;BME280;53853;51.982;5.928;2023-06-14T04:13:18;101513.81;;;18.20;42.56
66945;BME280;53853;51.982;5.928;2023-06-14T04:15:49;101517.34;;;18.20;42.75
66945;BME280;53853;51.982;5.928;2023-06-14T04:18:25;101513.81;;;18.20;42.69
66945;BME280;53853;51.982;5.928;2023-06-14T04:20:56;101530.19;;;18.18;43.03
66945;BME280;53853;51.982;5.928;2023-06-14T04:23:27;101521.25;;;18.18;43.04
66945;BME280;53853;51.982;5.928;2023-06-14T04:25:59;101521.25;;;18.18;42.99
66945;BME280;53853;51.982;5.928;2023-06-14T04:28:30;101530.19;;;18.18;43.24
66945;BME280;53853;51.982;5.928;2023-06-14T04:31:07;101531.19;;;18.17;43.25
66945;BME280;53853;51.982;5.928;2023-06-14T04:33:39;101533.91;;;18.17;43.53
66945;BME280;53853;51.982;5.928;2023-06-14T04:36:13;101542.53;;;18.13;43.99
66945;BME280;53853;51.982;5.928;2023-06-14T04:38:45;101533.78;;;18.10;44.24
66945;BME280;53853;51.982;5.928;2023-06-14T04:41:19;101537.69;;;18.08;44.80
66945;BME280;53853;51.982;5.928;2023-06-14T04:43:50;101538.19;;;18.12;44.56
66945;BME280;53853;51.982;5.928;2023-06-14T04:46:20;101540.03;;;18.11;44.70
66945;BME280;53853;51.982;5.928;2023-06-14T04:48:50;101541.06;;;18.10;44.81
66945;BME280;53853;51.982;5.928;2023-06-14T04:51:21;101545.41;;;18.11;44.98
66945;BME280;53853;51.982;5.928;2023-06-14T04:53:56;101555.66;;;18.16;45.01
66945;BME280;53853;51.982;5.928;2023-06-14T04:56:31;101557.63;;;18.22;44.92
66945;BME280;53853;51.982;5.928;2023-06-14T04:59:01;101552.91;;;18.24;44.83
66945;BME280;53853;51.982;5.928;2023-06-14T05:01:32;101554.19;;;18.28;44.74
66945;BME280;53853;51.982;5.928;2023-06-14T05:04:02;101546.38;;;18.33;44.91
66945;BME280;53853;51.982;5.928;2023-06-14T05:06:32;101551.59;;;18.35;44.72
66945;BME280;53853;51.982;5.928;2023-06-14T05:09:03;101558.03;;;18.34;44.54
66945;BME280;53853;51.982;5.928;2023-06-14T05:11:35;101556.00;;;18.36;44.65
66945;BME280;53853;51.982;5.928;2023-06-14T05:14:05;101557.78;;;18.43;44.54
66945;BME280;53853;51.982;5.928;2023-06-14T05:16:35;101555.34;;;18.49;44.78
66945;BME280;53853;51.982;5.928;2023-06-14T05:19:06;101557.13;;;18.56;44.64
66945;BME280;53853;51.982;5.928;2023-06-14T05:21:37;101555.94;;;18.59;44.53
66945;BME280;53853;51.982;5.928;2023-06-14T05:24:07;101557.13;;;18.71;44.41
66945;BME280;53853;51.982;5.928;2023-06-14T05:26:40;101563.47;;;18.78;44.26
66945;BME280;53853;51.982;5.928;2023-06-14T05:29:10;101558.19;;;18.85;44.39
66945;BME280;53853;51.982;5.928;2023-06-14T05:31:40;101565.72;;;18.90;43.99
66945;BME280;53853;51.982;5.928;2023-06-14T05:34:10;101567.31;;;18.99;43.70
66945;BME280;53853;51.982;5.928;2023-06-14T05:36:39;101564.88;;;19.04;43.87
66945;BME280;53853;51.982;5.928;2023-06-14T05:39:09;101569.97;;;19.14;43.54
66945;BME280;53853;51.982;5.928;2023-06-14T05:41:42;101572.38;;;19.24;43.63
66945;BME280;53853;51.982;5.928;2023-06-14T05:44:12;101574.22;;;19.38;43.42
66945;BME280;53853;51.982;5.928;2023-06-14T05:46:43;101573.63;;;19.43;43.22
66945;BME280;53853;51.982;5.928;2023-06-14T05:49:13;101572.31;;;19.53;43.26
66945;BME280;53853;51.982;5.928;2023-06-14T05:51:42;101580.09;;;19.63;43.05
66945;BME280;53853;51.982;5.928;2023-06-14T05:54:12;101582.72;;;19.71;42.79
66945;BME280;53853;51.982;5.928;2023-06-14T05:56:44;101580.72;;;19.80;42.74
66945;BME280;53853;51.982;5.928;2023-06-14T05:59:14;101588.72;;;19.88;42.41
66945;BME280;53853;51.982;5.928;2023-06-14T06:01:44;101590.47;;;19.96;42.23
66945;BME280;53853;51.982;5.928;2023-06-14T06:04:15;101599.69;;;20.02;42.54
66945;BME280;53853;51.982;5.928;2023-06-14T06:06:45;101603.66;;;20.06;42.56
66945;BME280;53853;51.982;5.928;2023-06-14T06:09:15;101595.16;;;20.09;42.46
66945;BME280;53853;51.982;5.928;2023-06-14T06:11:48;101600.63;;;20.16;42.26
66945;BME280;53853;51.982;5.928;2023-06-14T06:14:18;101599.84;;;20.22;42.37
66945;BME280;53853;51.982;5.928;2023-06-14T06:16:48;101598.63;;;20.24;42.42
66945;BME280;53853;51.982;5.928;2023-06-14T06:19:19;101601.75;;;20.28;42.15
66945;BME280;53853;51.982;5.928;2023-06-14T06:21:49;101608.28;;;20.34;42.13
66945;BME280;53853;51.982;5.928;2023-06-14T06:24:19;101606.19;;;20.36;42.08
66945;BME280;53853;51.982;5.928;2023-06-14T06:26:51;101602.47;;;20.37;41.83
66945;BME280;53853;51.982;5.928;2023-06-14T06:29:21;101607.88;;;20.37;42.17
66945;BME280;53853;51.982;5.928;2023-06-14T06:31:50;101615.44;;;20.41;42.40
66945;BME280;53853;51.982;5.928;2023-06-14T06:34:20;101612.53;;;20.43;42.49
66945;BME280;53853;51.982;5.928;2023-06-14T06:36:50;101617.53;;;20.46;42.00
66945;BME280;53853;51.982;5.928;2023-06-14T06:39:20;101613.78;;;20.47;42.08
66945;BME280;53853;51.982;5.928;2023-06-14T06:41:52;101617.97;;;20.50;41.47
66945;BME280;53853;51.982;5.928;2023-06-14T06:44:32;101618.81;;;20.50;41.52
66945;BME280;53853;51.982;5.928;2023-06-14T06:47:02;101621.75;;;20.55;41.73
66945;BME280;53853;51.982;5.928;2023-06-14T06:49:32;101627.03;;;20.63;41.65
66945;BME280;53853;51.982;5.928;2023-06-14T06:52:03;101627.31;;;20.69;41.55
66945;BME280;53853;51.982;5.928;2023-06-14T06:54:33;101631.69;;;20.70;41.27
66945;BME280;53853;51.982;5.928;2023-06-14T06:57:06;101634.00;;;20.73;41.40
66945;BME280;53853;51.982;5.928;2023-06-14T06:59:37;101635.28;;;20.77;41.33
66945;BME280;53853;51.982;5.928;2023-06-14T07:02:07;101642.81;;;20.81;41.22
66945;BME280;53853;51.982;5.928;2023-06-14T07:04:37;101640.94;;;20.82;41.04
66945;BME280;53853;51.982;5.928;2023-06-14T07:07:07;101643.91;;;20.87;41.27
66945;BME280;53853;51.982;5.928;2023-06-14T07:09:37;101649.56;;;20.92;40.88
66945;BME280;53853;51.982;5.928;2023-06-14T07:12:11;101642.88;;;20.95;40.97
66945;BME280;53853;51.982;5.928;2023-06-14T07:14:40;101651.47;;;20.98;40.80
66945;BME280;53853;51.982;5.928;2023-06-14T07:17:10;101652.53;;;21.04;40.62
66945;BME280;53853;51.982;5.928;2023-06-14T07:19:41;101651.13;;;21.08;40.54
66945;BME280;53853;51.982;5.928;2023-06-14T07:22:13;101659.28;;;21.15;40.74
66945;BME280;53853;51.982;5.928;2023-06-14T07:24:43;101652.44;;;21.19;40.41
66945;BME280;53853;51.982;5.928;2023-06-14T07:27:15;101658.72;;;21.26;40.20
66945;BME280;53853;51.982;5.928;2023-06-14T07:29:45;101660.63;;;21.32;39.95
66945;BME280;53853;51.982;5.928;2023-06-14T07:32:15;101659.00;;;21.38;40.42
66945;BME280;53853;51.982;5.928;2023-06-14T07:34:45;101664.63;;;21.43;40.38
66945;BME280;53853;51.982;5.928;2023-06-14T07:37:14;101665.72;;;21.49;40.24
66945;BME280;53853;51.982;5.928;2023-06-14T07:39:44;101666.59;;;21.56;40.30
66945;BME280;53853;51.982;5.928;2023-06-14T07:42:17;101668.69;;;21.61;39.17
66945;BME280;53853;51.982;5.928;2023-06-14T07:44:47;101662.00;;;21.63;38.55
66945;BME280;53853;51.982;5.928;2023-06-14T07:47:19;101666.44;;;21.71;38.73
66945;BME280;53853;51.982;5.928;2023-06-14T07:49:48;101667.09;;;21.80;38.51
66945;BME280;53853;51.982;5.928;2023-06-14T07:52:18;101670.25;;;21.90;38.41
66945;BME280;53853;51.982;5.928;2023-06-14T07:54:48;101668.81;;;21.94;37.75
66945;BME280;53853;51.982;5.928;2023-06-14T07:57:21;101670.69;;;22.00;37.73
66945;BME280;53853;51.982;5.928;2023-06-14T07:59:50;101664.44;;;22.06;37.13
66945;BME280;53853;51.982;5.928;2023-06-14T08:02:20;101671.13;;;22.11;36.44
66945;BME280;53853;51.982;5.928;2023-06-14T08:04:50;101664.25;;;22.15;36.34
66945;BME280;53853;51.982;5.928;2023-06-14T08:07:21;101665.94;;;22.22;36.30
66945;BME280;53853;51.982;5.928;2023-06-14T08:09:50;101673.44;;;22.27;36.21
66945;BME280;53853;51.982;5.928;2023-06-14T08:12:23;101676.81;;;22.36;35.82
66945;BME280;53853;51.982;5.928;2023-06-14T08:14:53;101668.06;;;22.40;36.22
66945;BME280;53853;51.982;5.928;2023-06-14T08:17:22;101666.41;;;22.46;35.70
66945;BME280;53853;51.982;5.928;2023-06-14T08:19:53;101669.09;;;22.53;35.78
66945;BME280;53853;51.982;5.928;2023-06-14T08:22:24;101673.06;;;22.64;36.02
66945;BME280;53853;51.982;5.928;2023-06-14T08:24:55;101657.19;;;22.67;34.93
66945;BME280;53853;51.982;5.928;2023-06-14T08:27:28;101665.94;;;22.69;34.85
66945;BME280;53853;51.982;5.928;2023-06-14T08:29:58;101667.00;;;22.75;34.26
66945;BME280;53853;51.982;5.928;2023-06-14T08:32:29;101664.06;;;22.76;33.90
66945;BME280;53853;51.982;5.928;2023-06-14T08:34:58;101667.81;;;22.75;34.59
66945;BME280;53853;51.982;5.928;2023-06-14T08:37:29;101671.16;;;22.77;34.71
66945;BME280;53853;51.982;5.928;2023-06-14T08:40:00;101671.78;;;22.86;34.94
66945;BME280;53853;51.982;5.928;2023-06-14T08:42:36;101666.97;;;22.88;34.66
66945;BME280;53853;51.982;5.928;2023-06-14T08:45:07;101660.06;;;22.92;34.87
66945;BME280;53853;51.982;5.928;2023-06-14T08:47:37;101664.47;;;23.00;34.82
66945;BME280;53853;51.982;5.928;2023-06-14T08:50:08;101660.88;;;23.06;33.80
66945;BME280;53853;51.982;5.928;2023-06-14T08:52:39;101665.06;;;23.09;33.65
66945;BME280;53853;51.982;5.928;2023-06-14T08:55:16;101669.88;;;23.13;33.11
66945;BME280;53853;51.982;5.928;2023-06-14T08:57:50;101669.44;;;23.17;33.33
66945;BME280;53853;51.982;5.928;2023-06-14T09:00:20;101669.63;;;23.22;33.82
66945;BME280;53853;51.982;5.928;2023-06-14T09:02:51;101672.34;;;23.28;34.19
66945;BME280;53853;51.982;5.928;2023-06-14T09:05:23;101661.66;;;23.33;33.96
66945;BME280;53853;51.982;5.928;2023-06-14T09:07:53;101655.38;;;23.40;33.94
66945;BME280;53853;51.982;5.928;2023-06-14T09:10:25;101654.72;;;23.44;33.92
66945;BME280;53853;51.982;5.928;2023-06-14T09:13:01;101654.28;;;23.47;33.83
66945;BME280;53853;51.982;5.928;2023-06-14T09:15:31;101664.94;;;23.56;33.57
66945;BME280;53853;51.982;5.928;2023-06-14T09:18:02;101666.16;;;23.60;32.12
66945;BME280;53853;51.982;5.928;2023-06-14T09:20:33;101667.59;;;23.62;32.00
66945;BME280;53853;51.982;5.928;2023-06-14T09:23:03;101675.56;;;23.64;32.18
66945;BME280;53853;51.982;5.928;2023-06-14T09:25:42;101667.34;;;23.70;32.87
66945;BME280;53853;51.982;5.928;2023-06-14T09:28:15;101667.75;;;23.74;32.97
66945;BME280;53853;51.982;5.928;2023-06-14T09:30:47;101669.44;;;23.75;33.04
66945;BME280;53853;51.982;5.928;2023-06-14T09:33:19;101672.31;;;23.80;33.07
66945;BME280;53853;51.982;5.928;2023-06-14T09:35:52;101677.38;;;23.83;33.42
66945;BME280;53853;51.982;5.928;2023-06-14T09:38:22;101668.75;;;23.86;32.82
66945;BME280;53853;51.982;5.928;2023-06-14T09:40:52;101665.59;;;23.90;32.79
66945;BME280;53853;51.982;5.928;2023-06-14T09:43:24;101668.53;;;23.88;32.57
66945;BME280;53853;51.982;5.928;2023-06-14T09:45:55;101676.44;;;23.96;33.34
66945;BME280;53853;51.982;5.928;2023-06-14T09:48:25;101666.81;;;24.00;32.68
66945;BME280;53853;51.982;5.928;2023-06-14T09:50:56;101659.25;;;24.02;33.08
66945;BME280;53853;51.982;5.928;2023-06-14T09:53:30;101671.59;;;24.05;32.65
66945;BME280;53853;51.982;5.928;2023-06-14T09:56:00;101669.25;;;24.09;31.94
66945;BME280;53853;51.982;5.928;2023-06-14T09:58:35;101673.28;;;24.06;30.85
66945;BME280;53853;51.982;5.928;2023-06-14T10:01:09;101669.25;;;24.09;30.99
66945;BME280;53853;51.982;5.928;2023-06-14T10:03:40;101665.66;;;24.15;31.08
66945;BME280;53853;51.982;5.928;2023-06-14T10:06:12;101658.50;;;24.20;31.02
66945;BME280;53853;51.982;5.928;2023-06-14T10:08:42;101663.31;;;24.18;30.25
66945;BME280;53853;51.982;5.928;2023-06-14T10:11:13;101666.91;;;24.12;30.74
66945;BME280;53853;51.982;5.928;2023-06-14T10:13:46;101658.09;;;24.17;31.14
66945;BME280;53853;51.982;5.928;2023-06-14T10:16:23;101656.59;;;24.21;31.18
66945;BME280;53853;51.982;5.928;2023-06-14T10:19:04;101665.16;;;24.24;31.35
66945;BME280;53853;51.982;5.928;2023-06-14T10:21:43;101664.13;;;24.26;31.15
66945;BME280;53853;51.982;5.928;2023-06-14T10:24:18;101660.31;;;24.27;30.46
66945;BME280;53853;51.982;5.928;2023-06-14T10:26:54;101653.59;;;24.29;30.08
66945;BME280;53853;51.982;5.928;2023-06-14T10:29:26;101655.13;;;24.25;30.25
66945;BME280;53853;51.982;5.928;2023-06-14T10:32:00;101658.88;;;24.24;30.78
66945;BME280;53853;51.982;5.928;2023-06-14T10:34:31;101657.00;;;24.24;31.18
66945;BME280;53853;51.982;5.928;2023-06-14T10:37:03;101664.13;;;24.26;31.00
66945;BME280;53853;51.982;5.928;2023-06-14T10:39:38;101646.94;;;24.25;30.75
66945;BME280;53853;51.982;5.928;2023-06-14T10:42:09;101655.50;;;24.29;30.75
66945;BME280;53853;51.982;5.928;2023-06-14T10:44:43;101650.66;;;24.31;30.65
66945;BME280;53853;51.982;5.928;2023-06-14T10:47:25;101665.28;;;24.36;30.72
66945;BME280;53853;51.982;5.928;2023-06-14T10:49:56;101662.50;;;24.43;30.36
66945;BME280;53853;51.982;5.928;2023-06-14T10:52:28;101667.06;;;24.49;30.42
66945;BME280;53853;51.982;5.928;2023-06-14T10:55:12;101659.00;;;24.36;29.63
66945;BME280;53853;51.982;5.928;2023-06-14T10:57:45;101657.56;;;24.33;29.82
66945;BME280;53853;51.982;5.928;2023-06-14T11:00:22;101657.34;;;24.35;29.86
66945;BME280;53853;51.982;5.928;2023-06-14T11:03:23;101656.50;;;24.34;29.53
66945;BME280;53853;51.982;5.928;2023-06-14T11:05:58;101657.56;;;24.33;29.54
66945;BME280;53853;51.982;5.928;2023-06-14T11:08:56;101669.66;;;24.37;29.61
66945;BME280;53853;51.982;5.928;2023-06-14T11:11:33;101661.06;;;24.40;30.26
66945;BME280;53853;51.982;5.928;2023-06-14T11:14:05;101654.94;;;24.45;30.06
66945;BME280;53853;51.982;5.928;2023-06-14T11:16:38;101657.59;;;24.52;30.88
66945;BME280;53853;51.982;5.928;2023-06-14T11:19:08;101659.25;;;24.59;30.54
66945;BME280;53853;51.982;5.928;2023-06-14T11:21:41;101656.69;;;24.65;29.77
66945;BME280;53853;51.982;5.928;2023-06-14T11:24:11;101669.47;;;24.64;29.65
66945;BME280;53853;51.982;5.928;2023-06-14T11:26:41;101659.19;;;24.66;29.87
66945;BME280;53853;51.982;5.928;2023-06-14T11:29:12;101657.09;;;24.68;29.67
66945;BME280;53853;51.982;5.928;2023-06-14T11:31:46;101656.84;;;24.70;29.71
66945;BME280;53853;51.982;5.928;2023-06-14T11:34:16;101665.25;;;24.68;28.83
66945;BME280;53853;51.982;5.928;2023-06-14T11:36:47;101658.19;;;24.61;29.16
66945;BME280;53853;51.982;5.928;2023-06-14T11:39:17;101658.41;;;24.59;29.72
66945;BME280;53853;51.982;5.928;2023-06-14T11:41:47;101657.59;;;24.58;29.98
66945;BME280;53853;51.982;5.928;2023-06-14T11:44:17;101666.38;;;24.61;29.82
66945;BME280;53853;51.982;5.928;2023-06-14T11:46:49;101657.38;;;24.60;29.92
66945;BME280;53853;51.982;5.928;2023-06-14T11:49:19;101668.06;;;24.62;29.97
66945;BME280;53853;51.982;5.928;2023-06-14T11:51:49;101665.47;;;24.67;30.25
66945;BME280;53853;51.982;5.928;2023-06-14T11:54:18;101670.03;;;24.73;29.93
66945;BME280;53853;51.982;5.928;2023-06-14T11:56:49;101657.00;;;24.75;30.11
66945;BME280;53853;51.982;5.928;2023-06-14T11:59:19;101663.06;;;24.77;29.60
66945;BME280;53853;51.982;5.928;2023-06-14T12:01:53;101669.59;;;24.76;29.32
66945;BME280;53853;51.982;5.928;2023-06-14T12:04:27;101663.97;;;24.71;29.63
66945;BME280;53853;51.982;5.928;2023-06-14T12:06:57;101653.69;;;24.73;29.88
66945;BME280;53853;51.982;5.928;2023-06-14T12:09:41;101662.00;;;24.78;29.93
66945;BME280;53853;51.982;5.928;2023-06-14T12:12:13;101674.38;;;24.81;29.12
66945;BME280;53853;51.982;5.928;2023-06-14T12:14:42;101661.56;;;24.81;29.24
66945;BME280;53853;51.982;5.928;2023-06-14T12:17:17;101675.03;;;24.76;29.60
66945;BME280;53853;51.982;5.928;2023-06-14T12:19:48;101667.69;;;24.76;29.91
66945;BME280;53853;51.982;5.928;2023-06-14T12:22:18;101653.00;;;24.77;29.97
66945;BME280;53853;51.982;5.928;2023-06-14T12:24:49;101653.38;;;24.81;30.13
66945;BME280;53853;51.982;5.928;2023-06-14T12:27:22;101654.00;;;24.83;30.41
66945;BME280;53853;51.982;5.928;2023-06-14T12:30:02;101657.50;;;24.90;30.49
66945;BME280;53853;51.982;5.928;2023-06-14T12:32:37;101660.97;;;24.98;30.46
66945;BME280;53853;51.982;5.928;2023-06-14T12:35:07;101659.25;;;25.03;30.03
66945;BME280;53853;51.982;5.928;2023-06-14T12:37:37;101651.88;;;25.04;30.25
66945;BME280;53853;51.982;5.928;2023-06-14T12:40:08;101650.38;;;25.08;30.14
66945;BME280;53853;51.982;5.928;2023-06-14T12:42:38;101658.34;;;25.09;29.92
66945;BME280;53853;51.982;5.928;2023-06-14T12:45:10;101652.44;;;25.12;30.15
66945;BME280;53853;51.982;5.928;2023-06-14T12:47:42;101657.22;;;25.17;30.21
66945;BME280;53853;51.982;5.928;2023-06-14T12:50:12;101659.44;;;25.20;30.39
66945;BME280;53853;51.982;5.928;2023-06-14T12:52:42;101658.53;;;25.26;30.25
66945;BME280;53853;51.982;5.928;2023-06-14T12:55:12;101657.06;;;25.30;30.39
66945;BME280;53853;51.982;5.928;2023-06-14T12:57:42;101661.63;;;25.37;30.89
66945;BME280;53853;51.982;5.928;2023-06-14T13:00:13;101657.97;;;25.43;30.63
66945;BME280;53853;51.982;5.928;2023-06-14T13:02:46;101661.88;;;25.47;30.39
66945;BME280;53853;51.982;5.928;2023-06-14T13:05:17;101667.97;;;25.49;30.52
66945;BME280;53853;51.982;5.928;2023-06-14T13:07:47;101660.00;;;25.47;29.63
66945;BME280;53853;51.982;5.928;2023-06-14T13:10:17;101659.16;;;25.47;29.56
66945;BME280;53853;51.982;5.928;2023-06-14T13:12:47;101661.28;;;25.45;29.46